RLSO2: Arkansas River, Ralston, OK

                                SHEF ID:       RLSO2     Arkansas River at Ralston, OK
STATION TYPE:
Regulating: Stage = 16.00, Flow = 78729

PRECIP STAGE STAGE(2) RIV-FLOW AIR-TEMP BAT-LOAD
in ft ft cfs F volt
Ccp-Rev Ccp-Rev Ccp-Rev Ccp-Rev Ccp-Rev Ccp-Rev
(America/Chicago)
03/29 00:00 0.00 3.19 3.26 360 54.50 12.76
03/29 01:00 0.00 3.19 3.25 360 53.42 12.75
03/29 02:00 0.00 3.16 3.24 342 53.42 12.71
03/29 03:00 0.00 3.16 3.25 342 54.68 12.72
03/29 04:00 0.00 3.17 3.25 348 53.42 12.70
03/29 05:00 0.00 3.17 3.25 348 51.80 12.70
03/29 06:00 0.00 3.15 3.24 337 51.08 12.67
03/29 07:00 0.00 3.15 3.24 337 50.54 12.67
03/29 08:00 0.00 3.15 3.24 337 51.62 12.65
03/29 09:00 0.00 3.16 3.23 342 56.48 12.70
03/29 10:00 0.00 3.14 3.22 331 61.88 13.03
03/29 11:00 0.00 3.12 3.24 320 66.02 13.26
03/29 12:00 0.00 3.13 3.25 325 69.80 13.23
03/29 13:00 0.00 3.15 3.22 337 74.12 13.17
03/29 14:00 0.00 3.15 3.26 337 77.18 13.17
03/29 15:00 0.00 3.18 3.26 354 79.88 13.18
03/29 16:00 0.00 3.17 3.26 348 81.68 13.16
03/29 17:00 0.00 3.19 3.26 360 83.12 12.93
03/29 18:00 0.00 3.18 3.25 354 82.40 12.87
03/29 19:00 0.00 3.16 3.28 342 81.14 12.84
03/29 20:00 0.00 3.22 3.29 378 78.08 12.83
03/29 21:00 0.00 3.21 3.27 372 75.20 12.80
03/29 22:00 0.00 3.19 3.25 360 73.40 12.79
03/29 23:00 0.00 3.16 3.23 342 72.68 12.78
Data processed at Mon 30Mar2026 04:21 GMT

NOTICE: If you are parsing this page

Please convert to using our Data API. Starting early 2026 we will be migrating to: https://water.usace.army.mil with modern pages rendered in JavaScript. When this migration completes you will no longer be able to scrape this page! CWMSDataAPI (CDA)

Timeseries IDs (TSIDs)

TSIDs used from left to right in the data table
RALS.Precip-Inc.Total.1Hour.1Hour.Ccp-Rev
RALS.Stage.Inst.1Hour.0.Ccp-Rev
RALS.Stage-Alt.Inst.1Hour.0.Ccp-Rev
RALS.Flow.Inst.1Hour.0.Ccp-Rev
RALS.Temp-Air.Inst.1Hour.0.Ccp-Rev
RALS.Volt-Battery Load.Inst.1Hour.0.Ccp-Rev

                            

All information presented herein is the property of the government of the United States of America and may be revised or deleted at any time without prior notice. Dissemination of this information without the expressed written consent of the Public Affairs Office, Tulsa District U.S. Army Corps of Engineers is strictly prohibited. These data are gathered electronically and, as presented, have NOT undergone any form of quality control. These data are NOT guaranteed to be valid or correct.